PWSweather.com
Personal Weather Stations
Station Observations
RAINWISE1
Rainwise Factory, Bar Harbor, ME 04609

Rainwise FactoryBar Harbor, ME 04609

Lat: 44.3897429696629, Lon: -68.2077813148499

Elevation: 29

Station Type: Rainwise MK-III

Latest ConditionsUpdated 8:29:00 PM EDT Sunday, Jun 24, 2018
Currently Today's Max Today's Min Today's Average
Temperature 62.4°F16.9°C 72.8°F22.7°C 54.5°F12.5°C 61.7°F16.5°C
Dew Point 58.8°F14.9°C 63.5°F17.5°C 53.9°F12.2°C 58.2°F14.6°C
Winds 2.4 mph SSW3.9 kmh SSW 6.4 mph -10.3 kmh - - 2.1 mph 3.4 kmh
Wind Gusts 3.5 mph5.6 kmh 9.5 mph15.3 kmh - -
Humidity 88% 100% 69% 89%
Pressure 29.83 in1010.2 mb 29.83 in1010.2 mb 29.77 in1008.1 mb -
Hour Temp Dew Point Humidity Winds Wind Gusts Pressure Precip Precip Rate Daily Precip Total
08:29 PM 62.4°F16.9°C 58.8°F14.9°C 88% 2.4 mph SSW3.9 kmh SSW 3.5 mph5.6 kmh 29.83 in1010.2 mb 0.00 in0.0 mm 0.00 in0.0 mm 0.00 in0.0 mm
08:24 PM 62.4°F16.9°C 58.8°F14.9°C 88% 0.4 mph SSE0.6 kmh SSE 1.3 mph2.1 kmh 29.83 in1010.2 mb 0.00 in0.0 mm 0.00 in0.0 mm 0.00 in0.0 mm
08:19 PM 62.5°F16.9°C 58.9°F14.9°C 88% 0.3 mph SSW0.5 kmh SSW 1.3 mph2.1 kmh 29.83 in1010.2 mb 0.00 in0.0 mm 0.00 in0.0 mm 0.00 in0.0 mm
08:14 PM 62.5°F16.9°C 58.6°F14.8°C 87% Calm Calm -- 29.83 in1010.2 mb 0.00 in0.0 mm 0.00 in0.0 mm 0.00 in0.0 mm
08:09 PM 62.5°F16.9°C 58.6°F14.8°C 87% 0.9 mph SW1.4 kmh SW 1.8 mph2.9 kmh 29.83 in1010.2 mb 0.00 in0.0 mm 0.00 in0.0 mm 0.00 in0.0 mm
08:04 PM 62.5°F16.9°C 58.6°F14.8°C 87% 0.4 mph SSW0.6 kmh SSW 1.3 mph2.1 kmh 29.83 in1010.2 mb 0.00 in0.0 mm 0.00 in0.0 mm 0.00 in0.0 mm
07:59 PM 62.4°F16.9°C 58.5°F14.7°C 87% 0.4 mph SSW0.6 kmh SSW 1.3 mph2.1 kmh 29.83 in1010.2 mb 0.00 in0.0 mm 0.00 in0.0 mm 0.00 in0.0 mm
07:54 PM 62.5°F16.9°C 58.6°F14.8°C 87% 2.4 mph SSW3.9 kmh SSW 3.2 mph5.1 kmh 29.83 in1010.2 mb 0.00 in0.0 mm 0.00 in0.0 mm 0.00 in0.0 mm
07:49 PM 62.5°F16.9°C 58.3°F14.6°C 86% 2.2 mph SSW3.5 kmh SSW 3.2 mph5.1 kmh 29.83 in1010.2 mb 0.00 in0.0 mm 0.00 in0.0 mm 0.00 in0.0 mm
07:44 PM 62.5°F16.9°C 58.6°F14.8°C 87% 1.4 mph WSW2.3 kmh WSW 3.0 mph4.8 kmh 29.83 in1010.2 mb 0.00 in0.0 mm 0.00 in0.0 mm 0.00 in0.0 mm
07:39 PM 62.6°F17.0°C 58.3°F14.6°C 86% 3.2 mph SW5.1 kmh SW 4.2 mph6.8 kmh 29.83 in1010.2 mb 0.00 in0.0 mm 0.00 in0.0 mm 0.00 in0.0 mm
07:34 PM 62.6°F17.0°C 58.7°F14.8°C 87% 3.0 mph SW4.8 kmh SW 4.0 mph6.4 kmh 29.82 in1009.8 mb 0.00 in0.0 mm 0.00 in0.0 mm 0.00 in0.0 mm
07:29 PM 62.6°F17.0°C 58.7°F14.8°C 87% 3.1 mph SSW5.0 kmh SSW 4.7 mph7.6 kmh 29.82 in1009.8 mb 0.00 in0.0 mm 0.00 in0.0 mm 0.00 in0.0 mm
07:24 PM 62.7°F17.1°C 58.8°F14.9°C 87% 3.2 mph SSW5.1 kmh SSW 5.0 mph8.0 kmh 29.82 in1009.8 mb 0.00 in0.0 mm 0.00 in0.0 mm 0.00 in0.0 mm
07:19 PM 62.7°F17.1°C 58.8°F14.9°C 87% 4.1 mph SSW6.6 kmh SSW 4.7 mph7.6 kmh 29.83 in1010.2 mb 0.00 in0.0 mm 0.00 in0.0 mm 0.00 in0.0 mm
07:14 PM 62.7°F17.1°C 58.4°F14.7°C 86% 2.4 mph SSW3.9 kmh SSW 3.5 mph5.6 kmh 29.82 in1009.8 mb 0.00 in0.0 mm 0.00 in0.0 mm 0.00 in0.0 mm
07:09 PM 62.7°F17.1°C 58.4°F14.7°C 86% 3.6 mph SSW5.8 kmh SSW 5.4 mph8.7 kmh 29.82 in1009.8 mb 0.00 in0.0 mm 0.00 in0.0 mm 0.00 in0.0 mm
07:04 PM 62.7°F17.1°C 58.4°F14.7°C 86% 3.0 mph SSW4.8 kmh SSW 4.4 mph7.1 kmh 29.82 in1009.8 mb 0.00 in0.0 mm 0.00 in0.0 mm 0.00 in0.0 mm
06:59 PM 62.9°F17.2°C 58.3°F14.6°C 85% 3.7 mph SSW6.0 kmh SSW 4.7 mph7.6 kmh 29.82 in1009.8 mb 0.00 in0.0 mm 0.00 in0.0 mm 0.00 in0.0 mm
06:54 PM 63.0°F17.2°C 58.4°F14.7°C 85% 3.8 mph SSW6.1 kmh SSW 5.7 mph9.2 kmh 29.82 in1009.8 mb 0.00 in0.0 mm 0.00 in0.0 mm 0.00 in0.0 mm
06:49 PM 63.1°F17.3°C 58.5°F14.7°C 85% 3.7 mph SSW6.0 kmh SSW 5.0 mph8.0 kmh 29.82 in1009.8 mb 0.00 in0.0 mm 0.00 in0.0 mm 0.00 in0.0 mm
06:44 PM 63.2°F17.3°C 57.9°F14.4°C 83% 2.1 mph SSE3.4 kmh SSE 3.0 mph4.8 kmh 29.82 in1009.8 mb 0.00 in0.0 mm 0.00 in0.0 mm 0.00 in0.0 mm
06:39 PM 63.2°F17.3°C 58.3°F14.6°C 84% 2.8 mph SSW4.5 kmh SSW 4.0 mph6.4 kmh 29.82 in1009.8 mb 0.00 in0.0 mm 0.00 in0.0 mm 0.00 in0.0 mm
06:34 PM 63.2°F17.3°C 58.3°F14.6°C 84% 2.2 mph SSW3.5 kmh SSW 2.7 mph4.3 kmh 29.82 in1009.8 mb 0.00 in0.0 mm 0.00 in0.0 mm 0.00 in0.0 mm
06:29 PM 63.2°F17.3°C 58.3°F14.6°C 84% 3.4 mph WSW5.5 kmh WSW 5.0 mph8.0 kmh 29.82 in1009.8 mb 0.00 in0.0 mm 0.00 in0.0 mm 0.00 in0.0 mm
06:24 PM 63.2°F17.3°C 57.9°F14.4°C 83% 3.2 mph SW5.1 kmh SW 5.7 mph9.2 kmh 29.82 in1009.8 mb 0.00 in0.0 mm 0.00 in0.0 mm 0.00 in0.0 mm
06:19 PM 63.4°F17.4°C 57.8°F14.3°C 82% 2.9 mph SW4.7 kmh SW 3.7 mph6.0 kmh 29.82 in1009.8 mb 0.00 in0.0 mm 0.00 in0.0 mm 0.00 in0.0 mm
06:14 PM 63.6°F17.6°C 57.7°F14.3°C 81% 2.9 mph SW4.7 kmh SW 4.7 mph7.6 kmh 29.82 in1009.8 mb 0.00 in0.0 mm 0.00 in0.0 mm 0.00 in0.0 mm
06:09 PM 63.7°F17.6°C 57.8°F14.3°C 81% 3.5 mph SW5.6 kmh SW 4.7 mph7.6 kmh 29.82 in1009.8 mb 0.00 in0.0 mm 0.00 in0.0 mm 0.00 in0.0 mm
06:04 PM 64.0°F17.8°C 58.0°F14.4°C 81% 4.7 mph SSW7.6 kmh SSW 7.2 mph11.6 kmh 29.82 in1009.8 mb 0.00 in0.0 mm 0.00 in0.0 mm 0.00 in0.0 mm
05:59 PM 64.4°F18.0°C 58.1°F14.5°C 80% 4.5 mph SSW7.2 kmh SSW 5.7 mph9.2 kmh 29.81 in1009.5 mb 0.00 in0.0 mm 0.00 in0.0 mm 0.00 in0.0 mm
05:54 PM 64.6°F18.1°C 58.3°F14.6°C 80% 5.4 mph SW8.7 kmh SW 7.9 mph12.7 kmh 29.81 in1009.5 mb 0.00 in0.0 mm 0.00 in0.0 mm 0.00 in0.0 mm
05:49 PM 65.0°F18.3°C 58.3°F14.6°C 79% 2.0 mph WSW3.2 kmh WSW 3.7 mph6.0 kmh 29.81 in1009.5 mb 0.00 in0.0 mm 0.00 in0.0 mm 0.00 in0.0 mm
05:44 PM 65.6°F18.7°C 58.9°F14.9°C 79% 4.7 mph SW7.6 kmh SW 6.7 mph10.8 kmh 29.80 in1009.1 mb 0.00 in0.0 mm 0.00 in0.0 mm 0.00 in0.0 mm
05:39 PM 66.3°F19.1°C 59.2°F15.1°C 78% 4.9 mph SW7.9 kmh SW 8.4 mph13.5 kmh 29.81 in1009.5 mb 0.00 in0.0 mm 0.00 in0.0 mm 0.00 in0.0 mm
05:34 PM 66.7°F19.3°C 59.6°F15.3°C 78% 5.2 mph SSW8.4 kmh SSW 7.0 mph11.3 kmh 29.80 in1009.1 mb 0.00 in0.0 mm 0.00 in0.0 mm 0.00 in0.0 mm
05:29 PM 66.8°F19.3°C 59.4°F15.2°C 77% 1.9 mph SW3.1 kmh SW 4.4 mph7.1 kmh 29.80 in1009.1 mb 0.00 in0.0 mm 0.00 in0.0 mm 0.00 in0.0 mm
05:24 PM 67.0°F19.4°C 59.2°F15.1°C 76% 1.9 mph WSW3.1 kmh WSW 5.4 mph8.7 kmh 29.80 in1009.1 mb 0.00 in0.0 mm 0.00 in0.0 mm 0.00 in0.0 mm
05:19 PM 67.2°F19.6°C 59.4°F15.2°C 76% 5.1 mph SW8.2 kmh SW 9.5 mph15.3 kmh 29.80 in1009.1 mb 0.00 in0.0 mm 0.00 in0.0 mm 0.00 in0.0 mm
05:14 PM 67.7°F19.8°C 59.5°F15.3°C 75% 4.8 mph SW7.7 kmh SW 7.2 mph11.6 kmh 29.80 in1009.1 mb 0.00 in0.0 mm 0.00 in0.0 mm 0.00 in0.0 mm
05:09 PM 68.3°F20.2°C 60.1°F15.6°C 75% 5.1 mph SW8.2 kmh SW 6.7 mph10.8 kmh 29.79 in1008.8 mb 0.00 in0.0 mm 0.00 in0.0 mm 0.00 in0.0 mm
05:04 PM 68.9°F20.5°C 60.6°F15.9°C 75% 4.6 mph SW7.4 kmh SW 6.5 mph10.5 kmh 29.79 in1008.8 mb 0.00 in0.0 mm 0.00 in0.0 mm 0.00 in0.0 mm
04:59 PM 69.2°F20.7°C 60.9°F16.1°C 75% 5.3 mph SW8.5 kmh SW 7.0 mph11.3 kmh 29.79 in1008.8 mb 0.00 in0.0 mm 0.00 in0.0 mm 0.00 in0.0 mm
04:54 PM 69.2°F20.7°C 60.9°F16.1°C 75% 5.0 mph SSW8.0 kmh SSW 5.7 mph9.2 kmh 29.79 in1008.8 mb 0.00 in0.0 mm 0.00 in0.0 mm 0.00 in0.0 mm
04:49 PM 69.0°F20.6°C 60.4°F15.8°C 74% 3.4 mph SW5.5 kmh SW 4.9 mph7.9 kmh 29.79 in1008.8 mb 0.00 in0.0 mm 0.00 in0.0 mm 0.00 in0.0 mm
04:44 PM 69.2°F20.7°C 60.6°F15.9°C 74% 3.9 mph SSW6.3 kmh SSW 4.7 mph7.6 kmh 29.79 in1008.8 mb 0.00 in0.0 mm 0.00 in0.0 mm 0.00 in0.0 mm
04:39 PM 69.8°F21.0°C 60.7°F15.9°C 73% 4.8 mph SSW7.7 kmh SSW 5.5 mph8.9 kmh 29.79 in1008.8 mb 0.00 in0.0 mm 0.00 in0.0 mm 0.00 in0.0 mm
04:34 PM 70.3°F21.3°C 61.2°F16.2°C 73% 4.4 mph SSW7.1 kmh SSW 5.7 mph9.2 kmh 29.79 in1008.8 mb 0.00 in0.0 mm 0.00 in0.0 mm 0.00 in0.0 mm
04:29 PM 70.5°F21.4°C 61.4°F16.3°C 73% 4.2 mph SSW6.8 kmh SSW 6.0 mph9.7 kmh 29.79 in1008.8 mb 0.00 in0.0 mm 0.00 in0.0 mm 0.00 in0.0 mm
04:24 PM 70.5°F21.4°C 61.4°F16.3°C 73% 0.7 mph SW1.1 kmh SW 3.5 mph5.6 kmh 29.79 in1008.8 mb 0.00 in0.0 mm 0.00 in0.0 mm 0.00 in0.0 mm
04:19 PM 71.0°F21.7°C 61.9°F16.6°C 73% 3.6 mph SSW5.8 kmh SSW 4.9 mph7.9 kmh 29.78 in1008.5 mb 0.00 in0.0 mm 0.00 in0.0 mm 0.00 in0.0 mm
04:14 PM 71.4°F21.9°C 61.9°F16.6°C 72% 5.1 mph SW8.2 kmh SW 6.2 mph10.0 kmh 29.78 in1008.5 mb 0.00 in0.0 mm 0.00 in0.0 mm 0.00 in0.0 mm
04:09 PM 71.5°F21.9°C 61.6°F16.4°C 71% 2.5 mph SW4.0 kmh SW 3.7 mph6.0 kmh 29.78 in1008.5 mb 0.00 in0.0 mm 0.00 in0.0 mm 0.00 in0.0 mm
04:04 PM 71.5°F21.9°C 61.2°F16.2°C 70% 0.5 mph NNW0.8 kmh NNW 1.6 mph2.6 kmh 29.78 in1008.5 mb 0.00 in0.0 mm 0.00 in0.0 mm 0.00 in0.0 mm
03:59 PM 71.5°F21.9°C 61.2°F16.2°C 70% 2.8 mph WSW4.5 kmh WSW 7.5 mph12.1 kmh 29.78 in1008.5 mb 0.00 in0.0 mm 0.00 in0.0 mm 0.00 in0.0 mm
03:54 PM 71.5°F21.9°C 60.8°F16.0°C 69% 1.7 mph WSW2.7 kmh WSW 4.7 mph7.6 kmh 29.78 in1008.5 mb 0.00 in0.0 mm 0.00 in0.0 mm 0.00 in0.0 mm
03:49 PM 71.8°F22.1°C 61.1°F16.2°C 69% 1.5 mph WSW2.4 kmh WSW 5.0 mph8.0 kmh 29.78 in1008.5 mb 0.00 in0.0 mm 0.00 in0.0 mm 0.00 in0.0 mm
03:44 PM 72.2°F22.3°C 61.9°F16.6°C 70% 4.8 mph SW7.7 kmh SW 6.5 mph10.5 kmh 29.78 in1008.5 mb 0.00 in0.0 mm 0.00 in0.0 mm 0.00 in0.0 mm
03:39 PM 71.9°F22.2°C 62.0°F16.7°C 71% 5.8 mph SSW9.3 kmh SSW 9.5 mph15.3 kmh 29.78 in1008.5 mb 0.00 in0.0 mm 0.00 in0.0 mm 0.00 in0.0 mm
03:34 PM 71.3°F21.8°C 61.4°F16.3°C 71% 6.1 mph SSW9.8 kmh SSW 8.4 mph13.5 kmh 29.78 in1008.5 mb 0.00 in0.0 mm 0.00 in0.0 mm 0.00 in0.0 mm
03:29 PM 70.8°F21.6°C 61.3°F16.3°C 72% 5.0 mph SSW8.0 kmh SSW 8.1 mph13.0 kmh 29.78 in1008.5 mb 0.00 in0.0 mm 0.00 in0.0 mm 0.00 in0.0 mm
03:24 PM 70.6°F21.4°C 60.7°F15.9°C 71% 5.0 mph SSW8.0 kmh SSW 7.0 mph11.3 kmh 29.78 in1008.5 mb 0.00 in0.0 mm 0.00 in0.0 mm 0.00 in0.0 mm
03:19 PM 70.5°F21.4°C 60.6°F15.9°C 71% 3.9 mph SW6.3 kmh SW 5.7 mph9.2 kmh 29.78 in1008.5 mb 0.00 in0.0 mm 0.00 in0.0 mm 0.00 in0.0 mm
03:14 PM 70.6°F21.4°C 60.7°F15.9°C 71% 4.0 mph SW6.4 kmh SW 6.7 mph10.8 kmh 29.78 in1008.5 mb 0.00 in0.0 mm 0.00 in0.0 mm 0.00 in0.0 mm
03:09 PM 70.9°F21.6°C 61.0°F16.1°C 71% 4.3 mph SSW6.9 kmh SSW 7.0 mph11.3 kmh 29.78 in1008.5 mb 0.00 in0.0 mm 0.00 in0.0 mm 0.00 in0.0 mm
03:04 PM 71.0°F21.7°C 60.7°F15.9°C 70% 4.5 mph SSW7.2 kmh SSW 5.7 mph9.2 kmh 29.78 in1008.5 mb 0.00 in0.0 mm 0.00 in0.0 mm 0.00 in0.0 mm
02:59 PM 71.2°F21.8°C 61.3°F16.3°C 71% 2.0 mph SSW3.2 kmh SSW 3.7 mph6.0 kmh 29.78 in1008.5 mb 0.00 in0.0 mm 0.00 in0.0 mm 0.00 in0.0 mm
02:54 PM 71.1°F21.7°C 61.2°F16.2°C 71% 5.3 mph SSW8.5 kmh SSW 8.4 mph13.5 kmh 29.78 in1008.5 mb 0.00 in0.0 mm 0.00 in0.0 mm 0.00 in0.0 mm
02:49 PM 71.0°F21.7°C 61.1°F16.2°C 71% 4.6 mph SSW7.4 kmh SSW 6.0 mph9.7 kmh 29.78 in1008.5 mb 0.00 in0.0 mm 0.00 in0.0 mm 0.00 in0.0 mm
02:44 PM 71.2°F21.8°C 60.9°F16.1°C 70% 4.3 mph S6.9 kmh S 6.2 mph10.0 kmh 29.78 in1008.5 mb 0.00 in0.0 mm 0.00 in0.0 mm 0.00 in0.0 mm
02:39 PM 71.2°F21.8°C 61.3°F16.3°C 71% 4.8 mph S7.7 kmh S 7.2 mph11.6 kmh 29.78 in1008.5 mb 0.00 in0.0 mm 0.00 in0.0 mm 0.00 in0.0 mm
02:34 PM 72.0°F22.2°C 61.7°F16.5°C 70% 3.5 mph S5.6 kmh S 5.0 mph8.0 kmh 29.77 in1008.1 mb 0.00 in0.0 mm 0.00 in0.0 mm 0.00 in0.0 mm
02:29 PM 72.8°F22.7°C 62.8°F17.1°C 71% 6.4 mph SSW10.3 kmh SSW 8.1 mph13.0 kmh 29.77 in1008.1 mb 0.00 in0.0 mm 0.00 in0.0 mm 0.00 in0.0 mm
02:24 PM 72.4°F22.4°C 62.5°F16.9°C 71% 4.6 mph NW7.4 kmh NW 8.4 mph13.5 kmh 29.77 in1008.1 mb 0.00 in0.0 mm 0.00 in0.0 mm 0.00 in0.0 mm
02:19 PM 71.7°F22.1°C 61.4°F16.3°C 70% 1.8 mph W2.9 kmh W 4.7 mph7.6 kmh 29.78 in1008.5 mb 0.00 in0.0 mm 0.00 in0.0 mm 0.00 in0.0 mm
02:14 PM 71.0°F21.7°C 61.9°F16.6°C 73% 1.2 mph WSW1.9 kmh WSW 3.5 mph5.6 kmh 29.78 in1008.5 mb 0.00 in0.0 mm 0.00 in0.0 mm 0.00 in0.0 mm
02:09 PM 70.7°F21.5°C 62.0°F16.7°C 74% 3.9 mph N6.3 kmh N 7.0 mph11.3 kmh 29.78 in1008.5 mb 0.00 in0.0 mm 0.00 in0.0 mm 0.00 in0.0 mm
02:04 PM 71.2°F21.8°C 62.9°F17.2°C 75% 5.0 mph SW8.0 kmh SW 7.0 mph11.3 kmh 29.79 in1008.8 mb 0.00 in0.0 mm 0.00 in0.0 mm 0.00 in0.0 mm
01:59 PM 71.2°F21.8°C 62.5°F16.9°C 74% 3.0 mph SSW4.8 kmh SSW 4.2 mph6.8 kmh 29.78 in1008.5 mb 0.00 in0.0 mm 0.00 in0.0 mm 0.00 in0.0 mm
01:54 PM 71.3°F21.8°C 62.6°F17.0°C 74% Calm Calm -- 29.79 in1008.8 mb 0.00 in0.0 mm 0.00 in0.0 mm 0.00 in0.0 mm
01:49 PM 71.5°F21.9°C 63.5°F17.5°C 76% 4.7 mph SW7.6 kmh SW 7.9 mph12.7 kmh 29.79 in1008.8 mb 0.00 in0.0 mm 0.00 in0.0 mm 0.00 in0.0 mm
01:44 PM 70.9°F21.6°C 62.2°F16.8°C 74% 1.7 mph NW2.7 kmh NW 3.5 mph5.6 kmh 29.79 in1008.8 mb 0.00 in0.0 mm 0.00 in0.0 mm 0.00 in0.0 mm
01:39 PM 70.8°F21.6°C 61.3°F16.3°C 72% 1.0 mph WNW1.6 kmh WNW 2.6 mph4.2 kmh 29.78 in1008.5 mb 0.00 in0.0 mm 0.00 in0.0 mm 0.00 in0.0 mm
01:34 PM 70.9°F21.6°C 61.4°F16.3°C 72% 2.2 mph WSW3.5 kmh WSW 3.7 mph6.0 kmh 29.78 in1008.5 mb 0.00 in0.0 mm 0.00 in0.0 mm 0.00 in0.0 mm
01:29 PM 70.5°F21.4°C 61.8°F16.6°C 74% 4.4 mph NNW7.1 kmh NNW 7.7 mph12.4 kmh 29.79 in1008.8 mb 0.00 in0.0 mm 0.00 in0.0 mm 0.00 in0.0 mm
01:24 PM 70.4°F21.3°C 61.3°F16.3°C 73% 1.8 mph WSW2.9 kmh WSW 4.7 mph7.6 kmh 29.78 in1008.5 mb 0.00 in0.0 mm 0.00 in0.0 mm 0.00 in0.0 mm
01:19 PM 70.4°F21.3°C 61.3°F16.3°C 73% 2.7 mph N4.3 kmh N 3.7 mph6.0 kmh 29.78 in1008.5 mb 0.00 in0.0 mm 0.00 in0.0 mm 0.00 in0.0 mm
01:14 PM 70.2°F21.2°C 61.9°F16.6°C 75% 4.9 mph NNW7.9 kmh NNW 7.0 mph11.3 kmh 29.79 in1008.8 mb 0.00 in0.0 mm 0.00 in0.0 mm 0.00 in0.0 mm
01:09 PM 70.0°F21.1°C 63.2°F17.3°C 79% 4.3 mph N6.9 kmh N 7.2 mph11.6 kmh 29.78 in1008.5 mb 0.00 in0.0 mm 0.00 in0.0 mm 0.00 in0.0 mm
01:04 PM 69.9°F21.1°C 63.1°F17.3°C 79% 0.3 mph NW0.5 kmh NW 2.1 mph3.4 kmh 29.78 in1008.5 mb 0.00 in0.0 mm 0.00 in0.0 mm 0.00 in0.0 mm
12:59 PM 69.5°F20.8°C 62.0°F16.7°C 77% 1.0 mph N1.6 kmh N 2.2 mph3.5 kmh 29.79 in1008.8 mb 0.00 in0.0 mm 0.00 in0.0 mm 0.00 in0.0 mm
12:54 PM 68.9°F20.5°C 61.4°F16.3°C 77% 0.6 mph SW1.0 kmh SW 2.6 mph4.2 kmh 29.79 in1008.8 mb 0.00 in0.0 mm 0.00 in0.0 mm 0.00 in0.0 mm
12:49 PM 68.7°F20.4°C 60.8°F16.0°C 76% 0.9 mph NNW1.4 kmh NNW 3.7 mph6.0 kmh 29.79 in1008.8 mb 0.00 in0.0 mm 0.00 in0.0 mm 0.00 in0.0 mm
12:44 PM 68.5°F20.3°C 61.0°F16.1°C 77% 2.3 mph SW3.7 kmh SW 7.5 mph12.1 kmh 29.79 in1008.8 mb 0.00 in0.0 mm 0.00 in0.0 mm 0.00 in0.0 mm
12:39 PM 67.9°F19.9°C 60.8°F16.0°C 78% 5.6 mph N9.0 kmh N 8.1 mph13.0 kmh 29.79 in1008.8 mb 0.00 in0.0 mm 0.00 in0.0 mm 0.00 in0.0 mm
12:34 PM 67.2°F19.6°C 60.5°F15.8°C 79% 2.8 mph NW4.5 kmh NW 5.7 mph9.2 kmh 29.79 in1008.8 mb 0.00 in0.0 mm 0.00 in0.0 mm 0.00 in0.0 mm
12:29 PM 66.9°F19.4°C 60.2°F15.7°C 79% 0.6 mph WNW1.0 kmh WNW 1.8 mph2.9 kmh 29.79 in1008.8 mb 0.00 in0.0 mm 0.00 in0.0 mm 0.00 in0.0 mm
12:24 PM 66.8°F19.3°C 60.4°F15.8°C 80% 3.0 mph NE4.8 kmh NE 5.7 mph9.2 kmh 29.79 in1008.8 mb 0.00 in0.0 mm 0.00 in0.0 mm 0.00 in0.0 mm
12:19 PM 67.0°F19.4°C 61.0°F16.1°C 81% 4.2 mph N6.8 kmh N 6.0 mph9.7 kmh 29.80 in1009.1 mb 0.00 in0.0 mm 0.00 in0.0 mm 0.00 in0.0 mm
12:14 PM 66.8°F19.3°C 61.1°F16.2°C 82% 3.3 mph NNE5.3 kmh NNE 4.9 mph7.9 kmh 29.80 in1009.1 mb 0.00 in0.0 mm 0.00 in0.0 mm 0.00 in0.0 mm
12:09 PM 65.9°F18.8°C 60.9°F16.1°C 84% 0.6 mph N1.0 kmh N 4.7 mph7.6 kmh 29.80 in1009.1 mb 0.00 in0.0 mm 0.00 in0.0 mm 0.00 in0.0 mm
12:04 PM 65.0°F18.3°C 60.4°F15.8°C 85% 0.1 mph NNW0.2 kmh NNW 2.2 mph3.5 kmh 29.81 in1009.5 mb 0.00 in0.0 mm 0.00 in0.0 mm 0.00 in0.0 mm
11:59 AM 64.5°F18.1°C 59.9°F15.5°C 85% 0.3 mph WNW0.5 kmh WNW 1.8 mph2.9 kmh 29.82 in1009.8 mb 0.00 in0.0 mm 0.00 in0.0 mm 0.00 in0.0 mm
11:54 AM 64.5°F18.1°C 59.6°F15.3°C 84% 0.4 mph W0.6 kmh W 1.8 mph2.9 kmh 29.82 in1009.8 mb 0.00 in0.0 mm 0.00 in0.0 mm 0.00 in0.0 mm
11:49 AM 64.7°F18.2°C 60.1°F15.6°C 85% 1.4 mph WSW2.3 kmh WSW 3.7 mph6.0 kmh 29.82 in1009.8 mb 0.00 in0.0 mm 0.00 in0.0 mm 0.00 in0.0 mm
11:44 AM 64.6°F18.1°C 60.0°F15.6°C 85% 0.1 mph NNW0.2 kmh NNW 1.1 mph1.8 kmh 29.82 in1009.8 mb 0.00 in0.0 mm 0.00 in0.0 mm 0.00 in0.0 mm
11:39 AM 64.2°F17.9°C 60.2°F15.7°C 87% 0.3 mph W0.5 kmh W 1.3 mph2.1 kmh 29.82 in1009.8 mb 0.00 in0.0 mm 0.00 in0.0 mm 0.00 in0.0 mm
11:34 AM 64.0°F17.8°C 60.0°F15.6°C 87% 0.8 mph NNW1.3 kmh NNW 2.7 mph4.3 kmh 29.82 in1009.8 mb 0.00 in0.0 mm 0.00 in0.0 mm 0.00 in0.0 mm
11:29 AM 63.5°F17.5°C 60.2°F15.7°C 89% 1.3 mph WNW2.1 kmh WNW 4.2 mph6.8 kmh 29.82 in1009.8 mb 0.00 in0.0 mm 0.00 in0.0 mm 0.00 in0.0 mm
11:24 AM 62.7°F17.1°C 59.1°F15.1°C 88% 1.1 mph SW1.8 kmh SW 3.0 mph4.8 kmh 29.82 in1009.8 mb 0.00 in0.0 mm 0.00 in0.0 mm 0.00 in0.0 mm
11:19 AM 62.5°F16.9°C 59.2°F15.1°C 89% 1.7 mph WSW2.7 kmh WSW 3.7 mph6.0 kmh 29.82 in1009.8 mb 0.00 in0.0 mm 0.00 in0.0 mm 0.00 in0.0 mm
11:14 AM 62.6°F17.0°C 59.3°F15.2°C 89% 2.3 mph SW3.7 kmh SW 4.9 mph7.9 kmh 29.82 in1009.8 mb 0.00 in0.0 mm 0.00 in0.0 mm 0.00 in0.0 mm
11:09 AM 62.6°F17.0°C 59.3°F15.2°C 89% 1.4 mph WSW2.3 kmh WSW 4.9 mph7.9 kmh 29.82 in1009.8 mb 0.00 in0.0 mm 0.00 in0.0 mm 0.00 in0.0 mm
11:04 AM 62.4°F16.9°C 59.1°F15.1°C 89% 0.6 mph W1.0 kmh W 3.2 mph5.1 kmh 29.82 in1009.8 mb 0.00 in0.0 mm 0.00 in0.0 mm 0.00 in0.0 mm
10:59 AM 62.4°F16.9°C 59.4°F15.2°C 90% 2.4 mph WSW3.9 kmh WSW 4.7 mph7.6 kmh 29.82 in1009.8 mb 0.00 in0.0 mm 0.00 in0.0 mm 0.00 in0.0 mm
10:54 AM 62.4°F16.9°C 59.1°F15.1°C 89% 2.5 mph WSW4.0 kmh WSW 5.0 mph8.0 kmh 29.82 in1009.8 mb 0.00 in0.0 mm 0.00 in0.0 mm 0.00 in0.0 mm
10:49 AM 62.4°F16.9°C 59.4°F15.2°C 90% 3.0 mph SW4.8 kmh SW 6.5 mph10.5 kmh 29.82 in1009.8 mb 0.00 in0.0 mm 0.00 in0.0 mm 0.00 in0.0 mm
10:44 AM 62.6°F17.0°C 59.6°F15.3°C 90% 0.2 mph WSW0.3 kmh WSW 1.1 mph1.8 kmh 29.81 in1009.5 mb 0.00 in0.0 mm 0.00 in0.0 mm 0.00 in0.0 mm
10:39 AM 62.5°F16.9°C 59.8°F15.4°C 91% 3.4 mph SW5.5 kmh SW 4.9 mph7.9 kmh 29.81 in1009.5 mb 0.00 in0.0 mm 0.00 in0.0 mm 0.00 in0.0 mm
10:34 AM 62.0°F16.7°C 59.0°F15.0°C 90% 0.2 mph NW0.3 kmh NW 1.6 mph2.6 kmh 29.81 in1009.5 mb 0.00 in0.0 mm 0.00 in0.0 mm 0.00 in0.0 mm
10:29 AM 61.7°F16.5°C 59.3°F15.2°C 92% 0.6 mph W1.0 kmh W 2.1 mph3.4 kmh 29.81 in1009.5 mb 0.00 in0.0 mm 0.00 in0.0 mm 0.00 in0.0 mm
10:24 AM 61.8°F16.6°C 59.1°F15.1°C 91% 2.5 mph SW4.0 kmh SW 3.7 mph6.0 kmh 29.81 in1009.5 mb 0.00 in0.0 mm 0.00 in0.0 mm 0.00 in0.0 mm
10:19 AM 62.1°F16.7°C 59.7°F15.4°C 92% 2.8 mph SW4.5 kmh SW 4.9 mph7.9 kmh 29.80 in1009.1 mb 0.00 in0.0 mm 0.00 in0.0 mm 0.00 in0.0 mm
10:14 AM 62.1°F16.7°C 60.4°F15.8°C 94% 1.1 mph SW1.8 kmh SW 4.0 mph6.4 kmh 29.80 in1009.1 mb 0.00 in0.0 mm 0.00 in0.0 mm 0.00 in0.0 mm
10:09 AM 62.4°F16.9°C 60.9°F16.1°C 95% 2.9 mph SW4.7 kmh SW 4.4 mph7.1 kmh 29.80 in1009.1 mb 0.00 in0.0 mm 0.00 in0.0 mm 0.00 in0.0 mm
10:04 AM 63.2°F17.3°C 61.4°F16.3°C 94% 4.4 mph SW7.1 kmh SW 6.5 mph10.5 kmh 29.79 in1008.8 mb 0.00 in0.0 mm 0.00 in0.0 mm 0.00 in0.0 mm
09:59 AM 62.8°F17.1°C 60.4°F15.8°C 92% 1.5 mph S2.4 kmh S 4.7 mph7.6 kmh 29.79 in1008.8 mb 0.00 in0.0 mm 0.00 in0.0 mm 0.00 in0.0 mm
09:54 AM 62.6°F17.0°C 60.5°F15.8°C 93% 1.2 mph SW1.9 kmh SW 2.2 mph3.5 kmh 29.79 in1008.8 mb 0.00 in0.0 mm 0.00 in0.0 mm 0.00 in0.0 mm
09:49 AM 62.5°F16.9°C 61.0°F16.1°C 95% 3.7 mph SW6.0 kmh SW 5.0 mph8.0 kmh 29.79 in1008.8 mb 0.00 in0.0 mm 0.00 in0.0 mm 0.00 in0.0 mm
09:44 AM 62.0°F16.7°C 60.3°F15.7°C 94% Calm Calm 1.3 mph2.1 kmh 29.79 in1008.8 mb 0.00 in0.0 mm 0.00 in0.0 mm 0.00 in0.0 mm
09:39 AM 61.9°F16.6°C 59.9°F15.5°C 93% 1.6 mph SW2.6 kmh SW 3.0 mph4.8 kmh 29.79 in1008.8 mb 0.00 in0.0 mm 0.00 in0.0 mm 0.00 in0.0 mm
09:34 AM 62.0°F16.7°C 59.6°F15.3°C 92% 5.5 mph SW8.9 kmh SW 7.7 mph12.4 kmh 29.80 in1009.1 mb 0.00 in0.0 mm 0.00 in0.0 mm 0.00 in0.0 mm
09:29 AM 61.7°F16.5°C 59.3°F15.2°C 92% 0.3 mph NW0.5 kmh NW 2.1 mph3.4 kmh 29.80 in1009.1 mb 0.00 in0.0 mm 0.00 in0.0 mm 0.00 in0.0 mm
09:24 AM 61.8°F16.6°C 59.8°F15.4°C 93% 1.8 mph WSW2.9 kmh WSW 4.2 mph6.8 kmh 29.80 in1009.1 mb 0.00 in0.0 mm 0.00 in0.0 mm 0.00 in0.0 mm
09:19 AM 61.9°F16.6°C 60.2°F15.7°C 94% 0.9 mph WSW1.4 kmh WSW 2.7 mph4.3 kmh 29.79 in1008.8 mb 0.00 in0.0 mm 0.00 in0.0 mm 0.00 in0.0 mm
09:14 AM 61.6°F16.4°C 59.6°F15.3°C 93% 2.1 mph SW3.4 kmh SW 2.7 mph4.3 kmh 29.79 in1008.8 mb 0.00 in0.0 mm 0.00 in0.0 mm 0.00 in0.0 mm
09:09 AM 61.3°F16.3°C 59.3°F15.2°C 93% 1.2 mph NNW1.9 kmh NNW 2.6 mph4.2 kmh 29.80 in1009.1 mb 0.00 in0.0 mm 0.00 in0.0 mm 0.00 in0.0 mm
09:04 AM 61.0°F16.1°C 59.0°F15.0°C 93% Calm Calm -- 29.80 in1009.1 mb 0.00 in0.0 mm 0.00 in0.0 mm 0.00 in0.0 mm
08:59 AM 61.0°F16.1°C 59.3°F15.2°C 94% 1.4 mph WSW2.3 kmh WSW 2.7 mph4.3 kmh 29.80 in1009.1 mb 0.00 in0.0 mm 0.00 in0.0 mm 0.00 in0.0 mm
08:54 AM 61.0°F16.1°C 59.3°F15.2°C 94% 1.3 mph WSW2.1 kmh WSW 4.2 mph6.8 kmh 29.80 in1009.1 mb 0.00 in0.0 mm 0.00 in0.0 mm 0.00 in0.0 mm
08:49 AM 60.8°F16.0°C 59.1°F15.1°C 94% 0.5 mph WSW0.8 kmh WSW 1.6 mph2.6 kmh 29.80 in1009.1 mb 0.00 in0.0 mm 0.00 in0.0 mm 0.00 in0.0 mm
08:44 AM 60.6°F15.9°C 59.2°F15.1°C 95% 2.5 mph NW4.0 kmh NW 4.0 mph6.4 kmh 29.80 in1009.1 mb 0.00 in0.0 mm 0.00 in0.0 mm 0.00 in0.0 mm
08:39 AM 60.1°F15.6°C 58.7°F14.8°C 95% Calm Calm -- 29.79 in1008.8 mb 0.00 in0.0 mm 0.00 in0.0 mm 0.00 in0.0 mm
08:34 AM 59.8°F15.4°C 58.7°F14.8°C 96% Calm Calm -- 29.80 in1009.1 mb 0.00 in0.0 mm 0.00 in0.0 mm 0.00 in0.0 mm
08:29 AM 59.5°F15.3°C 58.4°F14.7°C 96% 1.9 mph NNW3.1 kmh NNW 2.7 mph4.3 kmh 29.80 in1009.1 mb 0.00 in0.0 mm 0.00 in0.0 mm 0.00 in0.0 mm
08:24 AM 59.2°F15.1°C 58.3°F14.6°C 97% 1.3 mph NNW2.1 kmh NNW 3.0 mph4.8 kmh 29.80 in1009.1 mb 0.00 in0.0 mm 0.00 in0.0 mm 0.00 in0.0 mm
08:19 AM 59.1°F15.1°C 58.2°F14.6°C 97% 0.9 mph NW1.4 kmh NW 2.2 mph3.5 kmh 29.79 in1008.8 mb 0.00 in0.0 mm 0.00 in0.0 mm 0.00 in0.0 mm
08:14 AM 58.9°F14.9°C 58.3°F14.6°C 98% Calm Calm -- 29.79 in1008.8 mb 0.00 in0.0 mm 0.00 in0.0 mm 0.00 in0.0 mm
08:09 AM 58.6°F14.8°C 58.0°F14.4°C 98% 1.1 mph WSW1.8 kmh WSW 2.1 mph3.4 kmh 29.80 in1009.1 mb 0.00 in0.0 mm 0.00 in0.0 mm 0.00 in0.0 mm
08:04 AM 58.4°F14.7°C 57.8°F14.3°C 98% 0.2 mph NNW0.3 kmh NNW 1.1 mph1.8 kmh 29.80 in1009.1 mb 0.00 in0.0 mm 0.00 in0.0 mm 0.00 in0.0 mm
07:59 AM 58.4°F14.7°C 57.8°F14.3°C 98% 0.2 mph NW0.3 kmh NW 1.6 mph2.6 kmh 29.80 in1009.1 mb 0.00 in0.0 mm 0.00 in0.0 mm 0.00 in0.0 mm
07:54 AM 58.1°F14.5°C 57.8°F14.3°C 99% 0.3 mph NNW0.5 kmh NNW 1.3 mph2.1 kmh 29.80 in1009.1 mb 0.00 in0.0 mm 0.00 in0.0 mm 0.00 in0.0 mm
07:49 AM 57.6°F14.2°C 57.3°F14.1°C 99% Calm Calm -- 29.80 in1009.1 mb 0.00 in0.0 mm 0.00 in0.0 mm 0.00 in0.0 mm
07:44 AM 57.5°F14.2°C 57.2°F14.0°C 99% 0.4 mph N0.6 kmh N 2.1 mph3.4 kmh 29.80 in1009.1 mb 0.00 in0.0 mm 0.00 in0.0 mm 0.00 in0.0 mm
07:39 AM 57.5°F14.2°C 57.2°F14.0°C 99% 1.8 mph NNW2.9 kmh NNW 2.6 mph4.2 kmh 29.80 in1009.1 mb 0.00 in0.0 mm 0.00 in0.0 mm 0.00 in0.0 mm
07:34 AM 57.2°F14.0°C 57.2°F14.0°C 100% 1.4 mph NNW2.3 kmh NNW 2.7 mph4.3 kmh 29.80 in1009.1 mb 0.00 in0.0 mm 0.00 in0.0 mm 0.00 in0.0 mm
07:29 AM 56.9°F13.8°C 56.9°F13.8°C 100% Calm Calm -- 29.80 in1009.1 mb 0.00 in0.0 mm 0.00 in0.0 mm 0.00 in0.0 mm
07:24 AM 56.9°F13.8°C 56.9°F13.8°C 100% 1.3 mph NW2.1 kmh NW 3.2 mph5.1 kmh 29.79 in1008.8 mb 0.00 in0.0 mm 0.00 in0.0 mm 0.00 in0.0 mm
07:19 AM 56.7°F13.7°C 56.7°F13.7°C 100% 1.8 mph WSW2.9 kmh WSW 3.0 mph4.8 kmh 29.80 in1009.1 mb 0.00 in0.0 mm 0.00 in0.0 mm 0.00 in0.0 mm
07:14 AM 56.7°F13.7°C 56.7°F13.7°C 100% Calm Calm -- 29.79 in1008.8 mb 0.00 in0.0 mm 0.00 in0.0 mm 0.00 in0.0 mm
07:09 AM 56.5°F13.6°C 56.5°F13.6°C 100% Calm Calm -- 29.79 in1008.8 mb 0.00 in0.0 mm 0.00 in0.0 mm 0.00 in0.0 mm
07:04 AM 56.4°F13.6°C 56.4°F13.6°C 100% Calm Calm -- 29.79 in1008.8 mb 0.00 in0.0 mm 0.00 in0.0 mm 0.00 in0.0 mm
06:59 AM 56.2°F13.4°C 56.2°F13.4°C 100% Calm Calm -- 29.79 in1008.8 mb 0.00 in0.0 mm 0.00 in0.0 mm 0.00 in0.0 mm
06:54 AM 56.2°F13.4°C 56.2°F13.4°C 100% Calm Calm -- 29.78 in1008.5 mb 0.00 in0.0 mm 0.00 in0.0 mm 0.00 in0.0 mm
06:49 AM 56.2°F13.4°C 56.2°F13.4°C 100% 1.7 mph NNW2.7 kmh NNW 2.1 mph3.4 kmh 29.78 in1008.5 mb 0.00 in0.0 mm 0.00 in0.0 mm 0.00 in0.0 mm
06:44 AM 56.2°F13.4°C 56.2°F13.4°C 100% 1.9 mph NNW3.1 kmh NNW 2.6 mph4.2 kmh 29.78 in1008.5 mb 0.00 in0.0 mm 0.00 in0.0 mm 0.00 in0.0 mm
06:39 AM 56.2°F13.4°C 56.2°F13.4°C 100% 1.0 mph NNE1.6 kmh NNE 1.3 mph2.1 kmh 29.77 in1008.1 mb 0.00 in0.0 mm 0.00 in0.0 mm 0.00 in0.0 mm
06:34 AM 56.1°F13.4°C 56.1°F13.4°C 100% 0.5 mph NNE0.8 kmh NNE 1.3 mph2.1 kmh 29.78 in1008.5 mb 0.00 in0.0 mm 0.00 in0.0 mm 0.00 in0.0 mm
06:29 AM 56.0°F13.3°C 55.7°F13.2°C 99% Calm Calm -- 29.78 in1008.5 mb 0.00 in0.0 mm 0.00 in0.0 mm 0.00 in0.0 mm
06:24 AM 55.7°F13.2°C 55.7°F13.2°C 100% Calm Calm -- 29.78 in1008.5 mb 0.00 in0.0 mm 0.00 in0.0 mm 0.00 in0.0 mm
06:19 AM 55.7°F13.2°C 55.7°F13.2°C 100% Calm Calm -- 29.77 in1008.1 mb 0.00 in0.0 mm 0.00 in0.0 mm 0.00 in0.0 mm
06:14 AM 55.5°F13.1°C 55.5°F13.1°C 100% 0.3 mph NNE0.5 kmh NNE 1.1 mph1.8 kmh 29.77 in1008.1 mb 0.00 in0.0 mm 0.00 in0.0 mm 0.00 in0.0 mm
06:09 AM 55.4°F13.0°C 55.4°F13.0°C 100% 0.4 mph NNE0.6 kmh NNE 1.3 mph2.1 kmh 29.77 in1008.1 mb 0.00 in0.0 mm 0.00 in0.0 mm 0.00 in0.0 mm
06:04 AM 55.4°F13.0°C 55.4°F13.0°C 100% 0.1 mph NNE0.2 kmh NNE 1.1 mph1.8 kmh 29.77 in1008.1 mb 0.00 in0.0 mm 0.00 in0.0 mm 0.00 in0.0 mm
05:59 AM 55.4°F13.0°C 55.4°F13.0°C 100% 2.0 mph NNE3.2 kmh NNE 3.0 mph4.8 kmh 29.77 in1008.1 mb 0.00 in0.0 mm 0.00 in0.0 mm 0.00 in0.0 mm
05:54 AM 55.4°F13.0°C 55.4°F13.0°C 100% 0.7 mph NNE1.1 kmh NNE 1.3 mph2.1 kmh 29.77 in1008.1 mb 0.00 in0.0 mm 0.00 in0.0 mm 0.00 in0.0 mm
05:49 AM 55.4°F13.0°C 55.4°F13.0°C 100% 1.9 mph NNE3.1 kmh NNE 2.6 mph4.2 kmh 29.77 in1008.1 mb 0.00 in0.0 mm 0.00 in0.0 mm 0.00 in0.0 mm
05:44 AM 55.2°F12.9°C 55.2°F12.9°C 100% 0.5 mph NE0.8 kmh NE 1.3 mph2.1 kmh 29.77 in1008.1 mb 0.00 in0.0 mm 0.00 in0.0 mm 0.00 in0.0 mm
05:39 AM 55.2°F12.9°C 55.2°F12.9°C 100% 1.7 mph NE2.7 kmh NE 2.1 mph3.4 kmh 29.78 in1008.5 mb 0.00 in0.0 mm 0.00 in0.0 mm 0.00 in0.0 mm
05:34 AM 55.2°F12.9°C 55.2°F12.9°C 100% Calm Calm -- 29.77 in1008.1 mb 0.00 in0.0 mm 0.00 in0.0 mm 0.00 in0.0 mm
05:29 AM 55.2°F12.9°C 55.2°F12.9°C 100% 0.5 mph NE0.8 kmh NE 1.3 mph2.1 kmh 29.78 in1008.5 mb 0.00 in0.0 mm 0.00 in0.0 mm 0.00 in0.0 mm
05:24 AM 55.2°F12.9°C 55.2°F12.9°C 100% Calm Calm 1.1 mph1.8 kmh 29.78 in1008.5 mb 0.00 in0.0 mm 0.00 in0.0 mm 0.00 in0.0 mm
05:19 AM 55.2°F12.9°C 55.2°F12.9°C 100% Calm Calm -- 29.78 in1008.5 mb 0.00 in0.0 mm 0.00 in0.0 mm 0.00 in0.0 mm
05:14 AM 55.2°F12.9°C 55.2°F12.9°C 100% Calm Calm -- 29.78 in1008.5 mb 0.00 in0.0 mm 0.00 in0.0 mm 0.00 in0.0 mm
05:09 AM 55.2°F12.9°C 55.2°F12.9°C 100% 2.1 mph NNW3.4 kmh NNW 2.7 mph4.3 kmh 29.78 in1008.5 mb 0.00 in0.0 mm 0.00 in0.0 mm 0.00 in0.0 mm
05:04 AM 55.2°F12.9°C 55.2°F12.9°C 100% 1.7 mph NNW2.7 kmh NNW 2.7 mph4.3 kmh 29.78 in1008.5 mb 0.00 in0.0 mm 0.00 in0.0 mm 0.00 in0.0 mm
04:59 AM 55.2°F12.9°C 55.2°F12.9°C 100% 2.5 mph NNW4.0 kmh NNW 4.9 mph7.9 kmh 29.78 in1008.5 mb 0.00 in0.0 mm 0.00 in0.0 mm 0.00 in0.0 mm
04:54 AM 55.2°F12.9°C 55.2°F12.9°C 100% 2.2 mph N3.5 kmh N 3.5 mph5.6 kmh 29.77 in1008.1 mb 0.00 in0.0 mm 0.00 in0.0 mm 0.00 in0.0 mm
04:49 AM 55.2°F12.9°C 55.2°F12.9°C 100% 1.8 mph NNE2.9 kmh NNE 2.6 mph4.2 kmh 29.77 in1008.1 mb 0.00 in0.0 mm 0.00 in0.0 mm 0.00 in0.0 mm
04:44 AM 55.2°F12.9°C 55.2°F12.9°C 100% 2.8 mph N4.5 kmh N 4.0 mph6.4 kmh 29.77 in1008.1 mb 0.00 in0.0 mm 0.00 in0.0 mm 0.00 in0.0 mm
04:39 AM 55.3°F12.9°C 55.0°F12.8°C 99% 4.3 mph NNW6.9 kmh NNW 5.5 mph8.9 kmh 29.78 in1008.5 mb 0.00 in0.0 mm 0.00 in0.0 mm 0.00 in0.0 mm
04:34 AM 55.4°F13.0°C 55.4°F13.0°C 100% 3.8 mph NNW6.1 kmh NNW 4.9 mph7.9 kmh 29.77 in1008.1 mb 0.00 in0.0 mm 0.00 in0.0 mm 0.00 in0.0 mm
04:29 AM 55.4°F13.0°C 55.4°F13.0°C 100% 2.6 mph NNW4.2 kmh NNW 4.0 mph6.4 kmh 29.77 in1008.1 mb 0.00 in0.0 mm 0.00 in0.0 mm 0.00 in0.0 mm
04:24 AM 55.4°F13.0°C 55.4°F13.0°C 100% 1.9 mph NNW3.1 kmh NNW 2.6 mph4.2 kmh 29.78 in1008.5 mb 0.00 in0.0 mm 0.00 in0.0 mm 0.00 in0.0 mm
04:19 AM 55.4°F13.0°C 55.4°F13.0°C 100% 2.0 mph NNW3.2 kmh NNW 2.2 mph3.5 kmh 29.77 in1008.1 mb 0.00 in0.0 mm 0.00 in0.0 mm 0.00 in0.0 mm
04:14 AM 55.4°F13.0°C 55.4°F13.0°C 100% 0.1 mph NNW0.2 kmh NNW 1.1 mph1.8 kmh 29.78 in1008.5 mb 0.00 in0.0 mm 0.00 in0.0 mm 0.00 in0.0 mm
04:09 AM 55.4°F13.0°C 55.4°F13.0°C 100% 1.9 mph NNW3.1 kmh NNW 2.6 mph4.2 kmh 29.78 in1008.5 mb 0.00 in0.0 mm 0.00 in0.0 mm 0.00 in0.0 mm
04:04 AM 55.3°F12.9°C 55.0°F12.8°C 99% 1.6 mph NNW2.6 kmh NNW 2.1 mph3.4 kmh 29.78 in1008.5 mb 0.00 in0.0 mm 0.00 in0.0 mm 0.00 in0.0 mm
03:59 AM 55.2°F12.9°C 55.2°F12.9°C 100% 2.5 mph NNW4.0 kmh NNW 3.0 mph4.8 kmh 29.77 in1008.1 mb 0.00 in0.0 mm 0.00 in0.0 mm 0.00 in0.0 mm
03:54 AM 55.3°F12.9°C 55.3°F12.9°C 100% 1.4 mph NNE2.3 kmh NNE 2.2 mph3.5 kmh 29.78 in1008.5 mb 0.00 in0.0 mm 0.00 in0.0 mm 0.00 in0.0 mm
03:49 AM 55.2°F12.9°C 55.2°F12.9°C 100% 1.8 mph NNW2.9 kmh NNW 3.0 mph4.8 kmh 29.78 in1008.5 mb 0.00 in0.0 mm 0.00 in0.0 mm 0.00 in0.0 mm
03:44 AM 55.2°F12.9°C 55.2°F12.9°C 100% 2.2 mph N3.5 kmh N 2.7 mph4.3 kmh 29.78 in1008.5 mb 0.00 in0.0 mm 0.00 in0.0 mm 0.00 in0.0 mm
03:39 AM 55.2°F12.9°C 54.9°F12.7°C 99% 2.3 mph NNW3.7 kmh NNW 3.5 mph5.6 kmh 29.78 in1008.5 mb 0.00 in0.0 mm 0.00 in0.0 mm 0.00 in0.0 mm
03:34 AM 55.2°F12.9°C 54.9°F12.7°C 99% 1.4 mph NNE2.3 kmh NNE 2.1 mph3.4 kmh 29.78 in1008.5 mb 0.00 in0.0 mm 0.00 in0.0 mm 0.00 in0.0 mm
03:29 AM 55.1°F12.8°C 54.8°F12.7°C 99% 1.9 mph NNE3.1 kmh NNE 2.7 mph4.3 kmh 29.78 in1008.5 mb 0.00 in0.0 mm 0.00 in0.0 mm 0.00 in0.0 mm
03:24 AM 55.0°F12.8°C 55.0°F12.8°C 100% Calm Calm -- 29.78 in1008.5 mb 0.00 in0.0 mm 0.00 in0.0 mm 0.00 in0.0 mm
03:19 AM 55.0°F12.8°C 55.0°F12.8°C 100% 1.6 mph NNE2.6 kmh NNE 2.1 mph3.4 kmh 29.78 in1008.5 mb 0.00 in0.0 mm 0.00 in0.0 mm 0.00 in0.0 mm
03:14 AM 55.0°F12.8°C 54.7°F12.6°C 99% 0.1 mph NNE0.2 kmh NNE 1.1 mph1.8 kmh 29.78 in1008.5 mb 0.00 in0.0 mm 0.00 in0.0 mm 0.00 in0.0 mm
03:09 AM 55.0°F12.8°C 55.0°F12.8°C 100% 1.0 mph NNE1.6 kmh NNE 1.8 mph2.9 kmh 29.78 in1008.5 mb 0.00 in0.0 mm 0.00 in0.0 mm 0.00 in0.0 mm
03:04 AM 55.0°F12.8°C 54.7°F12.6°C 99% Calm Calm -- 29.77 in1008.1 mb 0.00 in0.0 mm 0.00 in0.0 mm 0.00 in0.0 mm
02:59 AM 55.1°F12.8°C 55.1°F12.8°C 100% Calm Calm -- 29.77 in1008.1 mb 0.00 in0.0 mm 0.00 in0.0 mm 0.00 in0.0 mm
02:54 AM 55.2°F12.9°C 55.2°F12.9°C 100% 1.8 mph NNE2.9 kmh NNE 2.2 mph3.5 kmh 29.77 in1008.1 mb 0.00 in0.0 mm 0.00 in0.0 mm 0.00 in0.0 mm
02:49 AM 55.2°F12.9°C 55.2°F12.9°C 100% 2.3 mph NNE3.7 kmh NNE 3.0 mph4.8 kmh 29.77 in1008.1 mb 0.00 in0.0 mm 0.00 in0.0 mm 0.00 in0.0 mm
02:44 AM 55.2°F12.9°C 55.2°F12.9°C 100% 2.0 mph NNE3.2 kmh NNE 3.0 mph4.8 kmh 29.78 in1008.5 mb 0.00 in0.0 mm 0.00 in0.0 mm 0.00 in0.0 mm
02:39 AM 55.2°F12.9°C 55.2°F12.9°C 100% 2.3 mph NNE3.7 kmh NNE 3.5 mph5.6 kmh 29.78 in1008.5 mb 0.00 in0.0 mm 0.00 in0.0 mm 0.00 in0.0 mm
02:34 AM 55.2°F12.9°C 55.2°F12.9°C 100% 1.6 mph NNE2.6 kmh NNE 2.1 mph3.4 kmh 29.79 in1008.8 mb 0.00 in0.0 mm 0.00 in0.0 mm 0.00 in0.0 mm
02:29 AM 55.2°F12.9°C 55.2°F12.9°C 100% 1.6 mph NNE2.6 kmh NNE 1.8 mph2.9 kmh 29.80 in1009.1 mb 0.00 in0.0 mm 0.00 in0.0 mm 0.00 in0.0 mm
02:24 AM 55.2°F12.9°C 55.2°F12.9°C 100% Calm Calm -- 29.81 in1009.5 mb 0.00 in0.0 mm 0.00 in0.0 mm 0.00 in0.0 mm
02:19 AM 55.2°F12.9°C 55.2°F12.9°C 100% Calm Calm -- 29.80 in1009.1 mb 0.00 in0.0 mm 0.00 in0.0 mm 0.00 in0.0 mm
02:14 AM 55.2°F12.9°C 55.2°F12.9°C 100% 0.4 mph NNE0.6 kmh NNE 1.3 mph2.1 kmh 29.80 in1009.1 mb 0.00 in0.0 mm 0.00 in0.0 mm 0.00 in0.0 mm
02:09 AM 55.2°F12.9°C 55.2°F12.9°C 100% 0.2 mph NNE0.3 kmh NNE 1.8 mph2.9 kmh 29.80 in1009.1 mb 0.00 in0.0 mm 0.00 in0.0 mm 0.00 in0.0 mm
02:04 AM 55.2°F12.9°C 55.2°F12.9°C 100% Calm Calm -- 29.81 in1009.5 mb 0.00 in0.0 mm 0.00 in0.0 mm 0.00 in0.0 mm
01:59 AM 55.1°F12.8°C 54.8°F12.7°C 99% Calm Calm -- 29.81 in1009.5 mb 0.00 in0.0 mm 0.00 in0.0 mm 0.00 in0.0 mm
01:54 AM 55.1°F12.8°C 54.8°F12.7°C 99% Calm Calm -- 29.81 in1009.5 mb 0.00 in0.0 mm 0.00 in0.0 mm 0.00 in0.0 mm
01:49 AM 55.1°F12.8°C 55.1°F12.8°C 100% 1.6 mph NNE2.6 kmh NNE 3.0 mph4.8 kmh 29.81 in1009.5 mb 0.00 in0.0 mm 0.00 in0.0 mm 0.00 in0.0 mm
01:44 AM 55.0°F12.8°C 54.7°F12.6°C 99% 1.5 mph N2.4 kmh N 1.8 mph2.9 kmh 29.81 in1009.5 mb 0.00 in0.0 mm 0.00 in0.0 mm 0.00 in0.0 mm
01:39 AM 54.9°F12.7°C 54.9°F12.7°C 100% Calm Calm -- 29.80 in1009.1 mb 0.00 in0.0 mm 0.00 in0.0 mm 0.00 in0.0 mm
01:34 AM 54.9°F12.7°C 54.9°F12.7°C 100% 1.3 mph NNW2.1 kmh NNW 2.1 mph3.4 kmh 29.80 in1009.1 mb 0.00 in0.0 mm 0.00 in0.0 mm 0.00 in0.0 mm
01:29 AM 54.9°F12.7°C 54.6°F12.6°C 99% 2.6 mph N4.2 kmh N 3.5 mph5.6 kmh 29.79 in1008.8 mb 0.00 in0.0 mm 0.00 in0.0 mm 0.00 in0.0 mm
01:24 AM 54.8°F12.7°C 54.5°F12.5°C 99% 3.0 mph N4.8 kmh N 4.7 mph7.6 kmh 29.80 in1009.1 mb 0.00 in0.0 mm 0.00 in0.0 mm 0.00 in0.0 mm
01:19 AM 54.7°F12.6°C 54.4°F12.4°C 99% 2.3 mph N3.7 kmh N 3.5 mph5.6 kmh 29.80 in1009.1 mb 0.00 in0.0 mm 0.00 in0.0 mm 0.00 in0.0 mm
01:14 AM 54.7°F12.6°C 54.4°F12.4°C 99% 2.1 mph N3.4 kmh N 4.0 mph6.4 kmh 29.80 in1009.1 mb 0.00 in0.0 mm 0.00 in0.0 mm 0.00 in0.0 mm
01:09 AM 54.6°F12.6°C 54.3°F12.4°C 99% 1.6 mph NNE2.6 kmh NNE 2.1 mph3.4 kmh 29.81 in1009.5 mb 0.00 in0.0 mm 0.00 in0.0 mm 0.00 in0.0 mm
01:04 AM 54.6°F12.6°C 54.3°F12.4°C 99% 2.0 mph N3.2 kmh N 2.7 mph4.3 kmh 29.82 in1009.8 mb 0.00 in0.0 mm 0.00 in0.0 mm 0.00 in0.0 mm
12:59 AM 54.5°F12.5°C 54.2°F12.3°C 99% Calm Calm -- 29.81 in1009.5 mb 0.00 in0.0 mm 0.00 in0.0 mm 0.00 in0.0 mm
12:54 AM 54.5°F12.5°C 54.2°F12.3°C 99% 1.1 mph NNW1.8 kmh NNW 1.8 mph2.9 kmh 29.81 in1009.5 mb 0.00 in0.0 mm 0.00 in0.0 mm 0.00 in0.0 mm
12:49 AM 54.5°F12.5°C 54.2°F12.3°C 99% 0.9 mph N1.4 kmh N 2.6 mph4.2 kmh 29.82 in1009.8 mb 0.00 in0.0 mm 0.00 in0.0 mm 0.00 in0.0 mm
12:44 AM 54.5°F12.5°C 54.2°F12.3°C 99% 1.9 mph NNE3.1 kmh NNE 3.0 mph4.8 kmh 29.82 in1009.8 mb 0.00 in0.0 mm 0.00 in0.0 mm 0.00 in0.0 mm
12:39 AM 54.5°F12.5°C 54.2°F12.3°C 99% 2.0 mph N3.2 kmh N 2.7 mph4.3 kmh 29.81 in1009.5 mb 0.00 in0.0 mm 0.00 in0.0 mm 0.00 in0.0 mm
12:34 AM 54.5°F12.5°C 54.2°F12.3°C 99% 2.4 mph N3.9 kmh N 3.2 mph5.1 kmh 29.82 in1009.8 mb 0.00 in0.0 mm 0.00 in0.0 mm 0.00 in0.0 mm
12:29 AM 54.5°F12.5°C 54.2°F12.3°C 99% 2.7 mph NNE4.3 kmh NNE 3.7 mph6.0 kmh 29.82 in1009.8 mb 0.00 in0.0 mm 0.00 in0.0 mm 0.00 in0.0 mm
12:24 AM 54.5°F12.5°C 54.2°F12.3°C 99% 2.7 mph NNW4.3 kmh NNW 4.9 mph7.9 kmh 29.82 in1009.8 mb 0.00 in0.0 mm 0.00 in0.0 mm 0.00 in0.0 mm
12:19 AM 54.5°F12.5°C 54.2°F12.3°C 99% 2.6 mph N4.2 kmh N 4.2 mph6.8 kmh 29.82 in1009.8 mb 0.00 in0.0 mm 0.00 in0.0 mm 0.00 in0.0 mm
12:14 AM 54.5°F12.5°C 53.9°F12.2°C 98% 2.6 mph N4.2 kmh N 4.0 mph6.4 kmh 29.82 in1009.8 mb 0.00 in0.0 mm 0.00 in0.0 mm 0.00 in0.0 mm
12:09 AM 54.5°F12.5°C 54.2°F12.3°C 99% 3.6 mph NNW5.8 kmh NNW 6.2 mph10.0 kmh 29.82 in1009.8 mb 0.00 in0.0 mm 0.00 in0.0 mm 0.00 in0.0 mm
12:04 AM 54.5°F12.5°C 54.2°F12.3°C 99% 2.7 mph N4.3 kmh N 4.2 mph6.8 kmh 29.82 in1009.8 mb 0.00 in0.0 mm 0.00 in0.0 mm 0.00 in0.0 mm